Terminal Aerodrome Forecast
Issued by NWS

Home | Current Version | Previous Version | Text Only | Print | Product List | Glossary On
Versions: 1 2 3 4 5 6 7 8 9 10 11 12 13 14 15 16 17
000
FTUS44 KOHX 050520
TAFCKV
TAF
KCKV 050520Z 0506/0606 VRB02KT P6SM BKN250
     FM051000 00000KT 3SM BR SCT100 BKN200
     FM051200 01005KT P6SM VCTS BKN040CB BKN100 OVC250
     FM051600 18004KT 5SM -TSRA BR BKN040CB BKN100 OVC250
     FM051900 VRB04KT P6SM VCTS BKN050CB BKN100 OVC250
     FM060000 11004KT P6SM SCT050 OVC100 PROB30 0600/0603 2SM -TSRA
      OVC050CB=

USA.gov is the U.S. government's official web portal to all federal, state and local government web resources and services.